CFG146 EDDM-GCLP
Flight info
| Callsign | CFG146 |
|---|---|
| Flight time | N/A |
| Altitude | 35000 |
| Route | TURBU7Q TURBU Y107 TOBSO DCT BAKOR DCT NESTI DCT VOG DCT GEKBA DCT VAMTU DCT KOLON DCT GANGU DCT PADKO DCT DIVKO DCT MAMES DCT BISBA DCT BGR DCT NENDA DCT BCN DCT RODRA DCT PEXOT DCT EBROX DCT LOTOS DCT TORDU DCT DIKUT DCT SOPET DCT VLC DCT SERRA DCT ASTRO DCT POBOS DCT XEBAR DCT YES DCT MAMIS DCT BAZAS DCT VIBAS DCT MGA DCT BRIKE DCT VJF DCT TAVSI L82 RUNAX UL82 IBALU/N0457F370 UN857 TERTO |
| Aircraft | A320/M-SDE3FGHIRWY/LB1 |
Departure
| Time | 2026-05-06 08:32 |
|---|---|
| Airport | Munich Airport (EDDM) |
Arrival
| Time | N/A |
|---|---|
| Airport | Gran Canaria Airport (GCLP) |
| Time | Latitude | Longitude | Altitude | Speed | Heading |
|---|---|---|---|---|---|
| 2026-05-06 08:18 | 48.35740 | 11.79255 | 1474 ft | 0 kts | 263° |
| 2026-05-06 08:22 | 48.35740 | 11.79262 | 1471 ft | 3 kts | 263° |
| 2026-05-06 08:22 | 48.35743 | 11.79302 | 1471 ft | 4 kts | 263° |
| 2026-05-06 08:22 | 48.35745 | 11.79337 | 1473 ft | 2 kts | 263° |
| 2026-05-06 08:23 | 48.35745 | 11.79374 | 1473 ft | 4 kts | 290° |
| 2026-05-06 08:23 | 48.35731 | 11.79403 | 1479 ft | 4 kts | 339° |
| 2026-05-06 08:23 | 48.35707 | 11.79410 | 1472 ft | 3 kts | 353° |
| 2026-05-06 08:23 | 48.35703 | 11.79411 | 1477 ft | 0 kts | 353° |
| 2026-05-06 08:25 | 48.35726 | 11.79407 | 1480 ft | 13 kts | 353° |
| 2026-05-06 08:25 | 48.35869 | 11.79384 | 1482 ft | 23 kts | 352° |
| 2026-05-06 08:25 | 48.36006 | 11.79330 | 1484 ft | 19 kts | 354° |
| 2026-05-06 08:26 | 48.36088 | 11.79231 | 1483 ft | 17 kts | 268° |
| 2026-05-06 08:26 | 48.36072 | 11.79027 | 1485 ft | 27 kts | 264° |
| 2026-05-06 08:26 | 48.36049 | 11.78736 | 1480 ft | 28 kts | 263° |
| 2026-05-06 08:26 | 48.36026 | 11.78445 | 1480 ft | 28 kts | 263° |
| 2026-05-06 08:27 | 48.36004 | 11.78155 | 1474 ft | 28 kts | 263° |
| 2026-05-06 08:27 | 48.35982 | 11.77865 | 1485 ft | 28 kts | 263° |
| 2026-05-06 08:27 | 48.35960 | 11.77575 | 1479 ft | 28 kts | 263° |
| 2026-05-06 08:27 | 48.35937 | 11.77286 | 1485 ft | 28 kts | 263° |
| 2026-05-06 08:28 | 48.35942 | 11.77069 | 1478 ft | 12 kts | 310° |
| 2026-05-06 08:28 | 48.35993 | 11.76986 | 1478 ft | 10 kts | 329° |
| 2026-05-06 08:28 | 48.36063 | 11.76967 | 1481 ft | 10 kts | 353° |
| 2026-05-06 08:28 | 48.36124 | 11.76957 | 1481 ft | 8 kts | 354° |
| 2026-05-06 08:29 | 48.36168 | 11.76949 | 1485 ft | 1 kts | 353° |
| 2026-05-06 08:29 | 48.36169 | 11.76949 | 1485 ft | 0 kts | 353° |
| 2026-05-06 08:31 | 48.36186 | 11.76946 | 1485 ft | 12 kts | 353° |
| 2026-05-06 08:31 | 48.36290 | 11.76978 | 1479 ft | 15 kts | 58° |
| 2026-05-06 08:31 | 48.36304 | 11.77121 | 1485 ft | 15 kts | 83° |
| 2026-05-06 08:32 | 48.36337 | 11.77526 | 1472 ft | 73 kts | 83° |
| 2026-05-06 08:32 | 48.36421 | 11.78594 | 1485 ft | 131 kts | 83° |
| 2026-05-06 08:32 | 48.36548 | 11.80194 | 1509 ft | 173 kts | 84° |
| 2026-05-06 08:32 | 48.36684 | 11.81984 | 2123 ft | 173 kts | 83° |
| 2026-05-06 08:33 | 48.36830 | 11.83782 | 2797 ft | 174 kts | 82° |
| 2026-05-06 08:33 | 48.36989 | 11.85601 | 3275 ft | 183 kts | 82° |
| 2026-05-06 08:33 | 48.37151 | 11.87614 | 3437 ft | 205 kts | 84° |
| 2026-05-06 08:33 | 48.37311 | 11.89862 | 3602 ft | 229 kts | 84° |
| 2026-05-06 08:34 | 48.37485 | 11.92321 | 4041 ft | 241 kts | 84° |
| 2026-05-06 08:34 | 48.37740 | 11.97402 | 5440 ft | 247 kts | 100° |
| 2026-05-06 08:34 | 48.37130 | 11.99793 | 6122 ft | 247 kts | 128° |
| 2026-05-06 08:35 | 48.35890 | 12.01536 | 6818 ft | 246 kts | 149° |
| 2026-05-06 08:35 | 48.34344 | 12.02622 | 7493 ft | 247 kts | 165° |
| 2026-05-06 08:35 | 48.33215 | 12.02959 | 7785 ft | 257 kts | 176° |
| 2026-05-06 08:35 | 48.30747 | 12.02875 | 8455 ft | 270 kts | 183° |
| 2026-05-06 08:36 | 48.29498 | 12.02794 | 8925 ft | 272 kts | 183° |
| 2026-05-06 08:36 | 48.27595 | 12.02674 | 9656 ft | 275 kts | 183° |
| 2026-05-06 08:36 | 48.25673 | 12.02557 | 10319 ft | 277 kts | 183° |
| 2026-05-06 08:36 | 48.23738 | 12.02447 | 10989 ft | 279 kts | 183° |
| 2026-05-06 08:37 | 48.21791 | 12.02336 | 11661 ft | 281 kts | 183° |
| 2026-05-06 08:37 | 48.19832 | 12.02224 | 12338 ft | 282 kts | 183° |
| 2026-05-06 08:37 | 48.17864 | 12.02113 | 13002 ft | 284 kts | 183° |
| 2026-05-06 08:37 | 48.15881 | 12.02000 | 13657 ft | 286 kts | 183° |
| 2026-05-06 08:38 | 48.13885 | 12.01885 | 14237 ft | 288 kts | 184° |
| 2026-05-06 08:38 | 48.11872 | 12.01762 | 14764 ft | 292 kts | 186° |
| 2026-05-06 08:38 | 48.09860 | 12.01060 | 14888 ft | 306 kts | 207° |
| 2026-05-06 08:38 | 48.08120 | 11.99106 | 15043 ft | 323 kts | 225° |
| 2026-05-06 08:39 | 48.06533 | 11.96596 | 15164 ft | 340 kts | 225° |
| 2026-05-06 08:39 | 48.04880 | 11.93955 | 15290 ft | 356 kts | 226° |
| 2026-05-06 08:39 | 48.03152 | 11.91196 | 15413 ft | 370 kts | 226° |
| 2026-05-06 08:39 | 48.01365 | 11.88352 | 15726 ft | 379 kts | 225° |
| 2026-05-06 08:40 | 47.99547 | 11.85466 | 16188 ft | 383 kts | 225° |
| 2026-05-06 08:40 | 47.97716 | 11.82568 | 16709 ft | 385 kts | 225° |
| 2026-05-06 08:40 | 47.95871 | 11.79656 | 17227 ft | 387 kts | 225° |
| 2026-05-06 08:40 | 47.94015 | 11.76729 | 17739 ft | 389 kts | 225° |
| 2026-05-06 08:41 | 47.92149 | 11.73787 | 18218 ft | 391 kts | 225° |
| 2026-05-06 08:41 | 47.90275 | 11.70830 | 18644 ft | 393 kts | 225° |
| 2026-05-06 08:41 | 47.88395 | 11.67870 | 19080 ft | 394 kts | 225° |
| 2026-05-06 08:41 | 47.86507 | 11.64910 | 19511 ft | 395 kts | 225° |
| 2026-05-06 08:42 | 47.84614 | 11.61946 | 19924 ft | 396 kts | 225° |
| 2026-05-06 08:42 | 47.82715 | 11.58975 | 20343 ft | 396 kts | 225° |
| 2026-05-06 08:42 | 47.80810 | 11.56000 | 20748 ft | 397 kts | 225° |
| 2026-05-06 08:42 | 47.78900 | 11.53021 | 21137 ft | 398 kts | 225° |
| 2026-05-06 08:43 | 47.76989 | 11.50036 | 21514 ft | 399 kts | 225° |
| 2026-05-06 08:43 | 47.75073 | 11.47041 | 21878 ft | 400 kts | 225° |
| 2026-05-06 08:43 | 47.73150 | 11.44041 | 22226 ft | 401 kts | 225° |
| 2026-05-06 08:43 | 47.71220 | 11.41038 | 22599 ft | 403 kts | 225° |
| 2026-05-06 08:44 | 47.69279 | 11.38019 | 22853 ft | 406 kts | 224° |
| 2026-05-06 08:44 | 47.67320 | 11.34975 | 23119 ft | 409 kts | 224° |
| 2026-05-06 08:44 | 47.65349 | 11.31924 | 23412 ft | 410 kts | 224° |
| 2026-05-06 08:44 | 47.63368 | 11.28866 | 23679 ft | 412 kts | 224° |
| 2026-05-06 08:45 | 47.61382 | 11.25803 | 23926 ft | 413 kts | 224° |
| 2026-05-06 08:45 | 47.59392 | 11.22730 | 24193 ft | 413 kts | 224° |
| 2026-05-06 08:45 | 47.57402 | 11.19656 | 24424 ft | 415 kts | 224° |
| 2026-05-06 08:45 | 47.55399 | 11.16568 | 24645 ft | 416 kts | 224° |
| 2026-05-06 08:46 | 47.53394 | 11.13479 | 24872 ft | 416 kts | 224° |
| 2026-05-06 08:46 | 47.51389 | 11.10389 | 25117 ft | 416 kts | 224° |
| 2026-05-06 08:46 | 47.49383 | 11.07302 | 25352 ft | 417 kts | 224° |
| 2026-05-06 08:46 | 47.47367 | 11.04215 | 25578 ft | 417 kts | 224° |
| 2026-05-06 08:47 | 47.45344 | 11.01130 | 25775 ft | 418 kts | 224° |
| 2026-05-06 08:47 | 47.43314 | 10.98038 | 25937 ft | 419 kts | 224° |